Time;durP1;ratioP1;P1;durP2;ratioP2;P2;SDS_P1;SDS_P2;PMS_P1;PMS_P2;Temp;Humidity;BMP_temperature;BMP_pressure;BME280_temperature;BME280_humidity;BME280_pressure;Samples;Min_cycle;Max_cycle;Signal;HPM_P1;HPM_P2
2021/07/11 00:00:35;;;;;;;5.60;5.10;;;19.00;99.90;;;;;;5078667;28;20604;-86
2021/07/11 00:03:01;;;;;;;7.90;6.53;;;19.00;99.90;;;;;;5077859;28;20487;-86
2021/07/11 00:05:28;;;;;;;7.37;6.80;;;19.00;99.90;;;;;;5078893;28;20842;-85
2021/07/11 00:07:54;;;;;;;8.50;7.70;;;18.90;99.90;;;;;;5078376;28;20536;-85
2021/07/11 00:10:21;;;;;;;7.77;7.07;;;18.80;99.90;;;;;;5077134;28;20785;-86
2021/07/11 00:12:47;;;;;;;7.80;7.10;;;18.80;99.90;;;;;;5077878;28;20455;-85
2021/07/11 00:15:16;;;;;;;9.13;8.23;;;18.80;99.90;;;;;;5076983;28;20786;-85
2021/07/11 00:17:43;;;;;;;8.57;7.77;;;18.80;99.90;;;;;;5077682;28;20546;-86
2021/07/11 00:20:11;;;;;;;9.10;8.20;;;18.80;99.90;;;;;;5076906;28;20441;-85
2021/07/11 00:22:38;;;;;;;7.63;6.73;;;18.70;99.90;;;;;;5094492;28;20850;-85
2021/07/11 00:25:06;;;;;;;8.50;7.70;;;18.70;99.90;;;;;;5079069;28;20401;-85
2021/07/11 00:27:32;;;;;;;7.40;6.80;;;18.70;99.90;;;;;;5078211;28;20396;-85
2021/07/11 00:29:58;;;;;;;9.27;7.17;;;18.70;99.90;;;;;;5078958;28;20404;-85
2021/07/11 00:32:25;;;;;;;16.67;7.43;;;18.70;99.90;;;;;;5078933;28;20934;-85
2021/07/11 00:34:51;;;;;;;7.87;7.17;;;18.70;99.90;;;;;;5077873;28;20398;-85
2021/07/11 00:37:17;;;;;;;8.30;7.60;;;18.80;99.90;;;;;;5078532;28;20398;-85
2021/07/11 00:39:42;;;;;;;7.53;6.93;;;18.80;99.90;;;;;;5077641;28;20274;-85
2021/07/11 00:42:17;;;;;;;8.63;7.83;;;18.70;99.90;;;;;;5078280;28;20175;-85
2021/07/11 00:44:43;;;;;;;8.43;7.60;;;18.60;99.90;;;;;;5078638;28;20163;-85
2021/07/11 00:47:10;;;;;;;8.00;7.20;;;18.70;99.90;;;;;;5093454;28;20900;-85
2021/07/11 00:49:37;;;;;;;9.17;8.07;;;18.70;99.90;;;;;;5078596;28;20405;-86
2021/07/11 00:52:03;;;;;;;8.10;7.30;;;18.70;99.90;;;;;;5078371;28;20488;-85
2021/07/11 00:54:29;;;;;;;7.83;7.10;;;18.70;99.90;;;;;;5078380;28;20429;-84
2021/07/11 00:56:55;;;;;;;10.23;7.37;;;18.70;99.90;;;;;;5077711;28;20232;-85
2021/07/11 00:59:22;;;;;;;7.17;6.57;;;18.70;99.90;;;;;;5078135;28;20202;-85
2021/07/11 01:02:14;;;;;;;7.70;6.87;;;18.40;99.90;;;;;;5076604;28;20401;-84
2021/07/11 01:04:52;;;;;;;6.90;6.30;;;18.00;99.90;;;;;;5077426;28;20393;-85
2021/07/11 01:07:38;;;;;;;7.60;6.60;;;17.60;99.90;;;;;;5077028;28;20405;-85
2021/07/11 01:10:09;;;;;;;6.47;5.97;;;17.40;99.90;;;;;;5077307;28;20862;-85
2021/07/11 01:12:43;;;;;;;7.07;6.40;;;17.20;99.90;;;;;;5059166;28;20418;-85
2021/07/11 01:15:09;;;;;;;6.90;6.20;;;17.30;99.90;;;;;;5077319;28;20402;-84
2021/07/11 01:17:35;;;;;;;7.50;6.80;;;17.60;99.90;;;;;;5077628;28;20398;-85
2021/07/11 01:20:18;;;;;;;6.90;6.20;;;17.80;99.90;;;;;;5076646;28;20842;-85
2021/07/11 01:22:48;;;;;;;7.53;5.03;;;17.90;99.90;;;;;;5079618;28;20397;-84
2021/07/11 01:25:34;;;;;;;9.20;6.40;;;17.80;99.90;;;;;;5080007;28;20893;-84
2021/07/11 01:28:02;;;;;;;6.50;6.00;;;17.80;99.90;;;;;;5081437;28;20551;-85
2021/07/11 01:30:29;;;;;;;9.37;8.57;;;17.90;99.90;;;;;;5080558;28;20424;-85
2021/07/11 01:32:56;;;;;;;7.07;6.47;;;17.80;99.90;;;;;;5081064;28;20394;-85
2021/07/11 01:35:23;;;;;;;9.30;8.40;;;17.80;99.90;;;;;;5081811;28;20399;-85
2021/07/11 01:37:51;;;;;;;7.73;7.07;;;17.90;99.90;;;;;;5080348;28;20512;-85
2021/07/11 01:40:19;;;;;;;7.40;6.70;;;18.10;99.90;;;;;;5078702;28;20514;-85
2021/07/11 01:42:46;;;;;;;6.03;5.60;;;18.30;99.90;;;;;;5079443;28;20464;-85
2021/07/11 01:45:13;;;;;;;7.00;6.27;;;18.40;99.90;;;;;;5062113;28;20410;-84
2021/07/11 01:47:41;;;;;;;12.80;8.70;;;18.40;99.90;;;;;;5079126;28;20410;-85
2021/07/11 01:50:09;;;;;;;8.07;7.27;;;18.30;99.90;;;;;;5078952;28;20497;-85
2021/07/11 01:52:36;;;;;;;6.20;5.73;;;18.20;99.90;;;;;;5061989;28;20467;-84
2021/07/11 01:55:05;;;;;;;6.60;5.73;;;18.40;99.90;;;;;;5061758;28;20877;-85
2021/07/11 01:57:31;;;;;;;7.90;6.97;;;18.50;99.90;;;;;;5078940;28;20471;-85
2021/07/11 01:59:57;;;;;;;6.27;5.67;;;18.50;99.90;;;;;;5078557;28;20449;-85
2021/07/11 02:02:23;;;;;;;6.33;5.77;;;18.60;99.90;;;;;;5078373;28;20430;-85
2021/07/11 02:04:49;;;;;;;7.57;6.97;;;18.60;99.90;;;;;;5078205;28;20405;-85
2021/07/11 02:07:15;;;;;;;7.20;6.50;;;18.60;99.90;;;;;;5078499;28;20514;-85
2021/07/11 02:09:41;;;;;;;8.87;8.10;;;18.60;99.90;;;;;;5079813;28;20210;-85
2021/07/11 02:12:07;;;;;;;8.47;7.77;;;18.40;99.90;;;;;;5080738;28;20167;-85
2021/07/11 02:14:37;;;;;;;9.27;7.43;;;18.30;99.90;;;;;;5080947;28;20297;-85
2021/07/11 02:17:10;;;;;;;6.13;5.63;;;17.80;99.90;;;;;;5080935;28;20776;-84
2021/07/11 02:19:38;;;;;;;6.50;5.90;;;17.40;99.90;;;;;;5080728;28;20437;-85
2021/07/11 02:22:07;;;;;;;7.10;6.40;;;17.10;99.90;;;;;;5080424;28;20474;-85
2021/07/11 02:24:38;;;;;;;6.97;6.43;;;17.00;99.90;;;;;;5081170;28;20369;-84
2021/07/11 02:27:06;;;;;;;7.90;7.10;;;16.80;99.90;;;;;;5082324;28;20889;-85
2021/07/11 02:29:39;;;;;;;10.30;7.57;;;16.70;99.90;;;;;;5082563;28;20398;-85
2021/07/11 02:32:08;;;;;;;9.07;7.67;;;16.60;99.90;;;;;;5086505;28;20968;-85
2021/07/11 02:34:34;;;;;;;11.13;7.10;;;16.40;99.90;;;;;;5086232;28;20455;-84
2021/07/11 02:37:03;;;;;;;8.63;7.70;;;16.50;99.90;;;;;;5102772;28;20410;-85
2021/07/11 02:39:30;;;;;;;8.30;7.60;;;16.60;99.90;;;;;;5082313;28;20441;-85
2021/07/11 02:42:01;;;;;;;8.17;7.47;;;16.70;99.90;;;;;;5080435;28;20394;-84
2021/07/11 02:44:27;;;;;;;11.80;8.63;;;16.80;99.90;;;;;;5080529;28;20487;-85
2021/07/11 02:47:06;;;;;;;8.63;7.70;;;16.70;99.90;;;;;;5080472;28;20769;-85
2021/07/11 02:49:34;;;;;;;7.80;7.10;;;16.70;99.90;;;;;;5080776;28;20405;-85
2021/07/11 02:52:02;;;;;;;8.50;7.20;;;16.80;99.90;;;;;;5081270;28;20393;-85
2021/07/11 02:54:35;;;;;;;6.67;6.07;;;16.90;99.90;;;;;;5079760;28;20397;-85
2021/07/11 02:57:04;;;;;;;6.80;6.23;;;17.00;99.90;;;;;;5081462;28;20433;-85
2021/07/11 02:59:32;;;;;;;7.60;6.83;;;17.10;99.90;;;;;;5082797;28;20486;-85
2021/07/11 03:02:05;;;;;;;8.23;7.43;;;17.30;99.90;;;;;;5082500;28;20394;-85
2021/07/11 03:04:33;;;;;;;7.60;6.47;;;17.40;99.90;;;;;;5082942;28;20390;-85
2021/07/11 03:07:00;;;;;;;6.83;6.23;;;17.20;99.90;;;;;;5088847;28;20381;-83
2021/07/11 03:09:26;;;;;;;5.93;5.43;;;17.20;99.90;;;;;;5095631;28;20437;-83
2021/07/11 03:11:52;;;;;;;7.37;6.67;;;17.20;99.90;;;;;;5088042;28;20394;-85
2021/07/11 03:14:20;;;;;;;7.13;6.43;;;17.20;99.90;;;;;;5090194;28;20474;-85
2021/07/11 03:16:53;;;;;;;6.43;5.93;;;17.30;99.90;;;;;;5079193;28;20914;-85
2021/07/11 03:19:20;;;;;;;7.40;6.57;;;17.40;99.90;;;;;;5080160;28;20441;-85
2021/07/11 03:21:49;;;;;;;8.43;6.40;;;17.40;99.90;;;;;;5095764;28;20405;-85
2021/07/11 03:24:20;;;;;;;9.53;6.80;;;17.30;99.90;;;;;;5079776;28;20394;-85
2021/07/11 03:26:47;;;;;;;6.87;6.27;;;17.30;99.90;;;;;;5091218;28;20398;-84
2021/07/11 03:29:25;;;;;;;7.13;6.40;;;17.50;99.90;;;;;;5091280;28;20402;-85
2021/07/11 03:31:56;;;;;;;6.70;6.10;;;17.50;99.90;;;;;;5079865;28;20389;-85
2021/07/11 03:34:28;;;;;;;6.43;5.93;;;17.70;99.90;;;;;;5079425;28;20394;-85
2021/07/11 03:36:56;;;;;;;6.20;5.70;;;17.70;99.90;;;;;;5079612;28;20397;-85
2021/07/11 03:39:24;;;;;;;8.23;7.53;;;17.60;99.90;;;;;;5079383;28;20440;-85
2021/07/11 03:41:50;;;;;;;6.43;5.90;;;17.60;99.90;;;;;;5079236;28;20397;-85
2021/07/11 03:44:18;;;;;;;8.20;7.40;;;17.60;99.90;;;;;;5077766;28;20991;-85
2021/07/11 03:46:46;;;;;;;8.40;6.47;;;17.60;99.90;;;;;;5078044;28;20389;-85
2021/07/11 03:49:14;;;;;;;8.00;7.20;;;17.80;99.90;;;;;;5082901;28;20389;-85
2021/07/11 03:51:41;;;;;;;6.20;5.70;;;17.70;99.90;;;;;;5080679;28;20400;-85
2021/07/11 03:54:09;;;;;;;6.13;5.60;;;17.70;99.90;;;;;;5093849;28;20405;-82
2021/07/11 03:56:36;;;;;;;6.57;5.97;;;17.70;99.90;;;;;;5097581;28;20453;-83
2021/07/11 03:59:06;;;;;;;7.53;6.93;;;17.70;99.90;;;;;;5114268;28;20398;-83
2021/07/11 04:01:34;;;;;;;6.07;5.67;;;17.70;99.90;;;;;;5098402;28;20404;-82
2021/07/11 04:04:04;;;;;;;8.00;7.23;;;17.60;99.90;;;;;;5095140;28;20404;-86
2021/07/11 04:06:32;;;;;;;6.43;5.77;;;17.80;99.90;;;;;;5078616;28;20394;-85
2021/07/11 04:09:00;;;;;;;10.70;7.00;;;17.80;99.90;;;;;;5078081;28;20484;-86
2021/07/11 04:11:26;;;;;;;6.53;6.03;;;17.60;99.90;;;;;;5076893;28;20423;-85
2021/07/11 04:13:52;;;;;;;6.83;6.33;;;17.60;99.90;;;;;;5078299;28;20398;-84
2021/07/11 04:16:22;;;;;;;7.90;6.60;;;17.60;99.90;;;;;;5078990;28;20167;-85
2021/07/11 04:18:49;;;;;;;8.33;6.90;;;17.60;99.90;;;;;;5078587;28;20209;-85
2021/07/11 04:21:17;;;;;;;7.20;6.57;;;17.50;99.90;;;;;;5078028;28;20445;-86
2021/07/11 04:23:44;;;;;;;7.40;6.70;;;17.50;99.90;;;;;;5077215;28;20870;-84
2021/07/11 04:26:12;;;;;;;8.20;6.67;;;17.60;99.90;;;;;;5078222;28;20400;-85
2021/07/11 04:28:42;;;;;;;8.40;7.70;;;17.40;99.90;;;;;;5078000;28;20420;-85
2021/07/11 04:31:10;;;;;;;7.33;6.70;;;17.40;99.90;;;;;;5077569;28;20405;-84
2021/07/11 04:33:36;;;;;;;9.03;6.93;;;17.40;99.90;;;;;;5077989;28;20428;-85
2021/07/11 04:36:05;;;;;;;7.57;6.87;;;17.30;99.90;;;;;;5078067;28;20421;-86
2021/07/11 04:38:31;;;;;;;8.50;7.50;;;17.40;99.90;;;;;;5078015;28;20397;-85
2021/07/11 04:40:58;;;;;;;9.20;8.40;;;17.20;99.90;;;;;;5077688;28;20441;-86
2021/07/11 04:43:24;;;;;;;8.40;7.50;;;17.30;99.90;;;;;;5077626;28;20219;-84
2021/07/11 04:45:49;;;;;;;7.10;6.47;;;17.30;99.90;;;;;;5077788;28;20404;-85
2021/07/11 04:48:16;;;;;;;12.53;7.47;;;17.20;99.90;;;;;;5078363;28;20512;-84
2021/07/11 04:50:43;;;;;;;9.83;8.40;;;17.20;99.90;;;;;;5078210;28;20170;-84
2021/07/11 04:53:09;;;;;;;8.53;7.70;;;17.20;99.90;;;;;;5077572;28;20398;-83
2021/07/11 04:55:35;;;;;;;12.07;7.93;;;17.30;99.90;;;;;;5080250;28;20489;-84
2021/07/11 04:58:01;;;;;;;8.53;7.63;;;17.30;99.90;;;;;;5081211;28;20894;-85
2021/07/11 05:00:27;;;;;;;8.90;7.00;;;17.40;99.90;;;;;;5082032;28;20195;-83
2021/07/11 05:02:53;;;;;;;8.60;7.80;;;17.40;99.90;;;;;;5081322;28;20398;-84
2021/07/11 05:05:18;;;;;;;8.43;7.70;;;17.40;99.90;;;;;;5081721;28;20313;-86
2021/07/11 05:07:44;;;;;;;9.03;8.20;;;17.40;99.90;;;;;;5081791;28;20195;-86
2021/07/11 05:10:11;;;;;;;8.70;8.00;;;17.50;99.90;;;;;;5081340;28;20254;-84
2021/07/11 05:12:37;;;;;;;7.27;6.70;;;17.40;99.90;;;;;;5081205;28;20175;-83
2021/07/11 05:15:05;;;;;;;8.03;7.23;;;17.30;99.90;;;;;;5081009;28;20407;-84
2021/07/11 05:17:34;;;;;;;8.30;7.50;;;17.10;99.90;;;;;;5081292;28;20459;-84
2021/07/11 05:20:00;;;;;;;9.47;8.03;;;17.10;99.90;;;;;;5081595;28;20445;-84
2021/07/11 05:22:27;;;;;;;9.10;8.30;;;17.10;99.90;;;;;;5083413;28;20398;-84
2021/07/11 05:24:53;;;;;;;10.63;8.23;;;17.20;99.90;;;;;;5083091;28;20467;-83
2021/07/11 05:27:19;;;;;;;10.33;8.37;;;17.20;99.90;;;;;;5086771;28;20671;-83
2021/07/11 05:29:46;;;;;;;10.97;9.30;;;17.10;99.90;;;;;;5083957;28;20479;-86
2021/07/11 05:32:12;;;;;;;12.07;8.27;;;17.20;99.90;;;;;;5086271;28;20164;-86
2021/07/11 05:34:37;;;;;;;9.13;8.23;;;17.30;99.90;;;;;;5084991;28;20455;-86
2021/07/11 05:37:03;;;;;;;9.10;8.23;;;17.30;99.90;;;;;;5084458;28;20170;-86
2021/07/11 05:39:29;;;;;;;8.57;7.67;;;17.50;99.90;;;;;;5080615;28;20195;-86
2021/07/11 05:41:55;;;;;;;13.53;7.30;;;17.50;99.90;;;;;;5079973;28;20394;-86
2021/07/11 05:44:21;;;;;;;10.23;8.87;;;17.60;99.90;;;;;;5102060;28;20163;-86
2021/07/11 05:46:47;;;;;;;6.47;5.87;;;17.60;99.90;;;;;;5101333;28;20607;-86
2021/07/11 05:49:13;;;;;;;7.80;7.13;;;17.70;99.90;;;;;;5101300;28;20730;-86
2021/07/11 05:51:39;;;;;;;8.10;7.37;;;17.60;99.90;;;;;;5101465;28;20416;-86
2021/07/11 05:54:05;;;;;;;7.43;6.67;;;17.60;99.90;;;;;;5082622;28;20158;-85
2021/07/11 05:56:31;;;;;;;6.50;5.90;;;17.70;99.90;;;;;;5100825;28;20514;-85
2021/07/11 05:58:57;;;;;;;7.83;6.77;;;17.70;99.90;;;;;;5101528;28;20381;-85
2021/07/11 06:01:23;;;;;;;6.10;5.60;;;17.70;99.90;;;;;;5083779;28;20190;-86
2021/07/11 06:03:48;;;;;;;5.80;5.07;;;17.70;99.90;;;;;;5101987;28;20650;-85
2021/07/11 06:06:14;;;;;;;5.47;5.07;;;17.70;99.90;;;;;;5102120;28;20158;-85
2021/07/11 06:08:40;;;;;;;4.77;4.37;;;17.70;99.90;;;;;;5116679;28;20186;-82
2021/07/11 06:11:07;;;;;;;4.80;4.40;;;17.60;99.90;;;;;;5118613;28;20171;-83
2021/07/11 06:13:33;;;;;;;4.77;4.27;;;17.70;99.90;;;;;;5118943;28;20227;-82
2021/07/11 06:15:59;;;;;;;5.80;5.20;;;17.60;99.90;;;;;;5111172;28;20409;-85
2021/07/11 06:18:24;;;;;;;5.17;4.77;;;17.60;99.90;;;;;;5100722;28;20208;-85
2021/07/11 06:20:50;;;;;;;3.93;3.63;;;17.60;99.90;;;;;;5099992;28;20190;-85
2021/07/11 06:23:16;;;;;;;3.90;3.60;;;17.70;99.90;;;;;;5100203;28;20591;-83
2021/07/11 06:25:42;;;;;;;3.33;3.13;;;17.70;99.90;;;;;;5082267;28;20614;-85
2021/07/11 06:28:07;;;;;;;4.03;3.70;;;17.80;99.90;;;;;;5100536;28;20212;-86
2021/07/11 06:30:33;;;;;;;3.63;3.33;;;17.80;99.90;;;;;;5100158;28;20509;-85
2021/07/11 06:32:59;;;;;;;3.33;3.03;;;17.80;99.90;;;;;;5082772;28;20174;-84
2021/07/11 06:35:25;;;;;;;2.87;2.67;;;17.80;99.90;;;;;;5100593;28;20303;-85
2021/07/11 06:37:52;;;;;;;2.90;2.70;;;17.80;99.90;;;;;;5099969;28;20250;-84
2021/07/11 06:40:21;;;;;;;2.60;2.20;;;17.80;99.90;;;;;;5100207;28;20542;-85
2021/07/11 06:42:47;;;;;;;3.60;3.30;;;17.80;99.90;;;;;;5092883;28;20456;-83
2021/07/11 06:45:15;;;;;;;3.43;3.13;;;18.10;99.90;;;;;;5080470;28;20422;-85
2021/07/11 06:47:41;;;;;;;2.47;2.27;;;18.00;99.90;;;;;;5079219;28;20396;-85
2021/07/11 06:50:10;;;;;;;3.07;2.87;;;17.90;99.90;;;;;;5079648;28;20397;-85
2021/07/11 06:52:37;;;;;;;5.43;2.40;;;18.00;99.90;;;;;;5095127;28;20453;-85
2021/07/11 06:55:24;;;;;;;2.73;2.53;;;18.00;99.90;;;;;;5080648;28;20426;-85
2021/07/11 06:57:50;;;;;;;2.93;2.73;;;18.20;99.90;;;;;;5079940;28;20459;-85
2021/07/11 07:00:17;;;;;;;2.47;2.27;;;18.30;99.90;;;;;;5080415;28;20540;-84
2021/07/11 07:02:42;;;;;;;2.50;2.40;;;18.10;99.90;;;;;;5080320;28;20159;-85
2021/07/11 07:05:10;;;;;;;3.17;2.87;;;18.00;99.90;;;;;;5082479;28;20390;-84
2021/07/11 07:07:36;;;;;;;3.53;2.80;;;18.10;99.90;;;;;;5088394;28;20168;-85
2021/07/11 07:10:04;;;;;;;2.60;2.40;;;17.90;99.90;;;;;;5086237;28;20926;-85
2021/07/11 07:12:30;;;;;;;2.77;2.57;;;18.00;99.90;;;;;;5080115;28;20163;-85
2021/07/11 07:14:56;;;;;;;2.73;2.40;;;17.90;99.90;;;;;;5079758;28;20748;-85
2021/07/11 07:17:22;;;;;;;2.20;2.10;;;18.10;99.90;;;;;;5078746;28;20470;-85
2021/07/11 07:19:48;;;;;;;3.27;2.60;;;18.20;99.90;;;;;;5079023;28;20302;-85
2021/07/11 07:22:14;;;;;;;3.10;2.90;;;18.50;99.90;;;;;;5062655;28;20244;-85
2021/07/11 07:24:39;;;;;;;4.50;2.40;;;18.60;99.90;;;;;;5079544;28;20223;-85
2021/07/11 07:27:05;;;;;;;2.87;2.67;;;18.60;99.90;;;;;;5079636;28;20191;-85
2021/07/11 07:29:31;;;;;;;2.23;2.13;;;18.40;99.90;;;;;;5079249;28;20504;-86
2021/07/11 07:31:57;;;;;;;2.73;2.53;;;18.20;99.90;;;;;;5079417;28;20170;-85
2021/07/11 07:34:22;;;;;;;2.10;2.00;;;18.20;99.90;;;;;;5079402;28;20508;-85
2021/07/11 07:36:48;;;;;;;2.30;2.17;;;18.20;99.90;;;;;;5079370;28;20187;-85
2021/07/11 07:39:21;;;;;;;3.00;2.20;;;18.40;99.90;;;;;;5096377;27;20544;-86
2021/07/11 07:41:46;;;;;;;3.00;2.70;;;18.60;99.90;;;;;;5095631;28;20385;-86
2021/07/11 07:44:12;;;;;;;3.10;2.90;;;18.40;99.90;;;;;;5095935;28;20630;-85
2021/07/11 07:46:38;;;;;;;2.70;2.50;;;18.30;99.90;;;;;;5096342;28;20630;-86
2021/07/11 07:49:04;;;;;;;3.00;2.80;;;18.50;99.90;;;;;;5096840;28;20389;-86
2021/07/11 07:51:30;;;;;;;3.00;2.80;;;18.70;99.90;;;;;;5096558;28;20167;-86
2021/07/11 07:53:55;;;;;;;2.70;2.50;;;18.80;99.90;;;;;;5096720;28;20245;-86
2021/07/11 07:56:21;;;;;;;2.40;2.20;;;18.80;99.90;;;;;;5111759;28;20522;-85
2021/07/11 07:58:47;;;;;;;2.40;2.20;;;18.80;99.90;;;;;;5096052;28;20191;-86
2021/07/11 08:01:13;;;;;;;4.03;2.70;;;19.00;99.90;;;;;;5095672;28;20169;-85
2021/07/11 08:03:38;;;;;;;2.53;2.33;;;19.00;99.90;;;;;;5096065;28;20163;-86
2021/07/11 08:06:04;;;;;;;2.97;2.77;;;19.00;99.90;;;;;;5094684;28;20186;-85
2021/07/11 08:08:30;;;;;;;2.90;2.70;;;18.60;99.90;;;;;;5078536;28;20263;-86
2021/07/11 08:10:56;;;;;;;2.90;2.70;;;18.30;99.90;;;;;;5094698;28;20187;-86
2021/07/11 08:13:22;;;;;;;3.37;3.00;;;18.10;99.90;;;;;;5077445;28;20392;-85
2021/07/11 08:15:48;;;;;;;2.83;2.63;;;18.20;99.90;;;;;;5096146;28;20159;-86
2021/07/11 08:18:14;;;;;;;2.83;2.63;;;18.50;99.90;;;;;;5095739;28;20666;-86
2021/07/11 08:20:40;;;;;;;3.20;3.00;;;18.50;99.90;;;;;;5096252;28;20397;-86
2021/07/11 08:23:06;;;;;;;3.50;3.23;;;18.60;99.90;;;;;;5094121;28;20736;-85
2021/07/11 08:25:32;;;;;;;2.80;2.60;;;18.70;99.90;;;;;;5100783;28;20393;-83
2021/07/11 08:27:58;;;;;;;2.63;2.50;;;18.70;99.90;;;;;;5106395;28;20260;-85
2021/07/11 08:30:24;;;;;;;2.90;2.70;;;18.80;99.90;;;;;;5107732;28;20411;-83
2021/07/11 08:32:50;;;;;;;2.63;2.50;;;18.70;99.90;;;;;;5106423;28;20405;-84
2021/07/11 08:35:16;;;;;;;3.53;3.30;;;18.80;99.90;;;;;;5098344;28;20401;-86
2021/07/11 08:37:42;;;;;;;3.20;3.00;;;18.80;99.90;;;;;;5100827;28;20227;-88
2021/07/11 08:40:10;;;;;;;3.30;3.00;;;19.00;99.90;;;;;;5100245;28;20408;-85
2021/07/11 08:42:40;;;;;;;3.53;2.90;;;18.90;99.90;;;;;;5095795;28;20653;-86
2021/07/11 08:45:07;;;;;;;2.63;2.43;;;19.00;99.90;;;;;;5094397;28;20401;-87
2021/07/11 08:47:33;;;;;;;2.80;2.60;;;19.10;99.90;;;;;;5093996;28;20413;-86
2021/07/11 08:49:58;;;;;;;3.20;2.70;;;19.30;99.90;;;;;;5085049;28;20194;-86
2021/07/11 08:52:24;;;;;;;8.00;2.33;;;19.10;99.90;;;;;;5081011;28;20213;-86
2021/07/11 08:54:50;;;;;;;2.23;2.13;;;19.10;99.90;;;;;;5081611;28;20185;-86
2021/07/11 08:57:16;;;;;;;2.93;2.73;;;19.20;99.90;;;;;;5080641;28;20620;-86
2021/07/11 08:59:42;;;;;;;2.70;2.50;;;19.30;99.90;;;;;;5082145;28;20182;-85
2021/07/11 09:02:09;;;;;;;16.03;3.87;;;18.70;99.90;;;;;;5082247;28;20206;-86
2021/07/11 09:04:47;;;;;;;2.80;2.60;;;19.00;99.90;;;;;;5080101;28;20394;-86
2021/07/11 09:07:21;;;;;;;3.03;2.83;;;18.90;99.90;;;;;;5080503;28;20394;-85
2021/07/11 09:09:56;;;;;;;2.30;2.20;;;19.00;99.90;;;;;;5081481;28;20425;-86
2021/07/11 09:12:23;;;;;;;2.70;2.50;;;19.10;99.90;;;;;;5081617;28;20437;-85
2021/07/11 09:14:51;;;;;;;2.77;2.57;;;19.00;99.90;;;;;;5081692;28;20448;-86
2021/07/11 09:17:17;;;;;;;3.20;2.90;;;18.90;99.90;;;;;;5082027;28;20536;-86
2021/07/11 09:19:48;;;;;;;2.60;2.40;;;19.10;99.90;;;;;;5082859;28;20925;-86
2021/07/11 09:22:17;;;;;;;3.17;2.77;;;19.20;99.90;;;;;;5083911;28;20285;-85
2021/07/11 09:24:58;;;;;;;3.33;3.10;;;19.20;99.90;;;;;;5092867;28;20424;-86
2021/07/11 09:27:28;;;;;;;3.67;3.37;;;19.30;99.90;;;;;;5094692;28;20397;-83
2021/07/11 09:30:04;;;;;;;3.37;3.10;;;19.40;99.90;;;;;;5089281;28;20468;-86
2021/07/11 09:32:32;;;;;;;3.03;2.83;;;19.40;99.90;;;;;;5082351;28;20413;-85
2021/07/11 09:35:18;;;;;;;3.50;3.20;;;19.30;99.90;;;;;;5081163;28;20398;-86
2021/07/11 09:37:47;;;;;;;2.77;2.57;;;18.90;99.90;;;;;;5080391;28;20471;-84
2021/07/11 09:40:16;;;;;;;3.70;3.40;;;19.20;99.90;;;;;;5079436;28;20574;-85
2021/07/11 09:42:45;;;;;;;3.50;3.20;;;19.40;99.90;;;;;;5062735;28;20386;-85
2021/07/11 09:45:19;;;;;;;10.10;2.87;;;18.70;99.90;;;;;;5081414;28;20394;-86
2021/07/11 09:47:47;;;;;;;2.50;2.40;;;19.00;99.90;;;;;;5079358;28;20451;-84
2021/07/11 09:50:21;;;;;;;3.20;3.00;;;19.10;99.90;;;;;;5077718;28;20401;-86
2021/07/11 09:52:49;;;;;;;3.43;3.13;;;19.10;99.90;;;;;;5079155;28;20488;-86
2021/07/11 09:55:19;;;;;;;2.87;2.67;;;19.30;99.90;;;;;;5079745;28;20405;-83
2021/07/11 09:57:48;;;;;;;3.30;3.10;;;19.40;99.90;;;;;;5079151;28;20515;-84
2021/07/11 10:00:25;;;;;;;4.33;2.70;;;19.40;99.90;;;;;;5080106;28;20457;-86
2021/07/11 10:02:57;;;;;;;3.90;3.50;;;19.40;99.90;;;;;;5078949;28;20402;-85
2021/07/11 10:05:24;;;;;;;4.00;3.70;;;18.80;99.90;;;;;;5079760;28;20720;-86
2021/07/11 10:07:50;;;;;;;3.30;2.80;;;18.90;99.90;;;;;;5080067;28;20425;-85
2021/07/11 10:10:19;;;;;;;4.67;3.50;;;18.60;99.90;;;;;;5079401;28;20405;-86
2021/07/11 10:12:46;;;;;;;4.30;3.90;;;18.30;99.90;;;;;;5078569;28;20398;-84
2021/07/11 10:15:18;;;;;;;5.80;3.20;;;18.40;99.90;;;;;;5080265;28;20398;-84
2021/07/11 10:17:57;;;;;;;3.40;3.20;;;18.30;99.90;;;;;;5078495;28;20437;-84
2021/07/11 10:20:30;;;;;;;3.80;3.30;;;18.50;99.90;;;;;;5078902;28;20390;-84
2021/07/11 10:22:56;;;;;;;4.50;4.10;;;18.60;99.90;;;;;;5085790;28;20382;-85
2021/07/11 10:25:25;;;;;;;3.20;3.00;;;18.80;99.90;;;;;;5080738;28;20397;-86
2021/07/11 10:28:11;;;;;;;3.67;3.37;;;18.80;99.90;;;;;;5079239;28;20858;-86
2021/07/11 10:30:41;;;;;;;3.27;3.03;;;18.80;99.90;;;;;;5079373;28;20449;-86
2021/07/11 10:33:12;;;;;;;3.80;3.50;;;18.70;99.90;;;;;;5079179;28;20530;-86
2021/07/11 10:35:52;;;;;;;4.00;3.70;;;18.70;99.90;;;;;;5078960;28;20398;-86
2021/07/11 10:38:29;;;;;;;4.50;3.35;;;18.50;99.90;;;;;;5077127;28;20429;-86
2021/07/11 10:41:10;;;;;;;3.10;2.90;;;18.80;99.90;;;;;;5077754;28;20518;-86
2021/07/11 10:43:36;;;;;;;3.00;2.80;;;19.00;99.90;;;;;;5078476;28;20413;-86
2021/07/11 10:46:02;;;;;;;3.87;3.57;;;19.10;99.90;;;;;;5081226;28;20425;-86
2021/07/11 10:48:30;;;;;;;3.83;3.53;;;19.20;99.90;;;;;;5083734;28;20417;-86
2021/07/11 10:50:57;;;;;;;3.30;3.00;;;19.20;99.90;;;;;;5081836;28;20394;-86
2021/07/11 10:53:23;;;;;;;3.43;3.23;;;19.00;99.90;;;;;;5079114;28;20534;-85
2021/07/11 10:55:48;;;;;;;4.13;3.83;;;18.60;99.90;;;;;;5079318;28;20430;-86
2021/07/11 10:58:17;;;;;;;5.03;3.80;;;18.90;99.90;;;;;;5060864;28;20548;-86
2021/07/11 11:00:44;;;;;;;4.00;3.70;;;18.90;99.90;;;;;;5078726;28;20168;-86
2021/07/11 11:03:25;;;;;;;3.60;3.30;;;18.70;99.90;;;;;;5078014;28;20752;-86
2021/07/11 11:05:52;;;;;;;3.77;3.47;;;18.90;99.90;;;;;;5078154;28;20398;-86
2021/07/11 11:08:23;;;;;;;3.50;3.23;;;19.10;99.90;;;;;;5080090;28;20459;-86
2021/07/11 11:10:53;;;;;;;2.60;2.40;;;18.80;99.90;;;;;;5080013;28;20799;-86
2021/07/11 11:13:25;;;;;;;3.30;3.10;;;18.70;99.90;;;;;;5078677;28;20796;-86
2021/07/11 11:15:56;;;;;;;3.37;2.90;;;18.60;99.90;;;;;;5078337;28;20436;-86
2021/07/11 11:18:40;;;;;;;3.60;3.30;;;18.80;99.90;;;;;;5079051;28;20491;-86
2021/07/11 11:21:12;;;;;;;4.37;3.97;;;19.10;99.90;;;;;;5079226;28;20405;-86
2021/07/11 11:23:42;;;;;;;3.97;3.67;;;18.90;99.90;;;;;;5079015;28;20418;-85
2021/07/11 11:26:10;;;;;;;2.77;2.53;;;18.90;99.90;;;;;;5076809;28;20398;-86
2021/07/11 11:28:39;;;;;;;3.80;3.50;;;19.00;99.90;;;;;;5078163;28;20408;-85
2021/07/11 11:31:17;;;;;;;6.60;4.83;;;18.70;99.90;;;;;;5076779;28;20614;-86
2021/07/11 11:33:52;;;;;;;3.10;2.87;;;18.70;99.90;;;;;;5078100;28;20393;-86
2021/07/11 11:36:27;;;;;;;3.70;3.40;;;18.90;99.90;;;;;;5078181;28;20405;-86
2021/07/11 11:38:54;;;;;;;4.60;4.20;;;19.00;99.90;;;;;;5076764;28;20508;-85
2021/07/11 11:41:22;;;;;;;4.60;3.40;;;19.30;99.90;;;;;;5079043;28;20390;-86
2021/07/11 11:43:48;;;;;;;3.27;2.97;;;19.20;99.90;;;;;;5077403;28;20393;-86
2021/07/11 11:46:29;;;;;;;3.80;3.40;;;19.10;99.90;;;;;;5078935;28;20416;-86
2021/07/11 11:48:56;;;;;;;4.23;3.87;;;19.40;99.90;;;;;;5078110;28;20402;-86
2021/07/11 11:51:23;;;;;;;4.07;3.73;;;19.20;99.90;;;;;;5061187;28;20514;-86
2021/07/11 11:53:50;;;;;;;4.30;4.00;;;19.30;99.90;;;;;;5081094;28;20398;-85
2021/07/11 11:56:16;;;;;;;3.70;3.40;;;19.20;99.90;;;;;;5077514;28;20410;-86
2021/07/11 11:58:42;;;;;;;4.03;3.73;;;19.00;99.90;;;;;;5077891;28;20433;-86
2021/07/11 12:01:12;;;;;;;4.17;3.77;;;19.30;99.90;;;;;;5076391;28;20394;-84
2021/07/11 12:03:40;;;;;;;3.70;3.40;;;19.70;99.90;;;;;;5076665;28;20513;-86
2021/07/11 12:06:08;;;;;;;7.57;4.07;;;19.80;99.90;;;;;;5078327;28;20398;-86
2021/07/11 12:08:39;;;;;;;9.73;3.90;;;19.50;99.90;;;;;;5076831;28;20491;-86
2021/07/11 12:11:06;;;;;;;3.73;3.43;;;19.60;99.90;;;;;;5077442;28;20398;-86
2021/07/11 12:13:32;;;;;;;3.80;3.53;;;19.80;99.90;;;;;;5078647;28;20404;-86
2021/07/11 12:16:07;;;;;;;3.50;3.20;;;20.10;99.90;;;;;;5059270;28;20441;-86
2021/07/11 12:18:42;;;;;;;3.67;3.37;;;20.50;99.90;;;;;;5075558;28;20444;-86
2021/07/11 12:21:10;;;;;;;3.00;2.77;;;20.20;99.90;;;;;;5059496;28;20412;-86
2021/07/11 12:23:37;;;;;;;4.17;3.87;;;20.00;99.90;;;;;;5059569;28;20406;-87
2021/07/11 12:26:06;;;;;;;4.40;4.00;;;19.80;99.90;;;;;;5078949;28;20409;-86
2021/07/11 12:28:35;;;;;;;5.10;4.60;;;19.80;99.90;;;;;;5080026;28;20394;-86
2021/07/11 12:31:01;;;;;;;5.90;5.37;;;20.00;99.90;;;;;;5063161;28;20424;-86
2021/07/11 12:33:29;;;;;;;4.70;4.30;;;20.00;99.90;;;;;;5079787;28;20402;-86
2021/07/11 12:35:59;;;;;;;4.10;3.80;;;19.50;99.90;;;;;;5078733;28;20449;-86
2021/07/11 12:38:30;;;;;;;3.97;3.67;;;19.50;99.90;;;;;;5045957;28;20461;-86
2021/07/11 12:41:00;;;;;;;4.37;3.97;;;19.30;99.90;;;;;;5086673;28;20398;-86
2021/07/11 12:43:31;;;;;;;4.10;3.80;;;19.40;99.90;;;;;;5072525;28;20418;-86
2021/07/11 12:46:07;;;;;;;7.07;6.33;;;19.40;99.90;;;;;;5067919;28;20420;-84
2021/07/11 12:48:43;;;;;;;5.30;3.90;;;19.60;99.90;;;;;;5058902;28;20425;-85
2021/07/11 12:51:24;;;;;;;4.50;4.10;;;19.50;99.90;;;;;;5042707;28;20450;-86